Time;durP1;ratioP1;P1;durP2;ratioP2;P2;SDS_P1;SDS_P2;PMS_P1;PMS_P2;Temp;Humidity;BMP_temperature;BMP_pressure;BME280_temperature;BME280_humidity;BME280_pressure;Samples;Min_cycle;Max_cycle;Signal;HPM_P1;HPM_P2
2024/01/12 00:00:14;;;;;;;3.20;1.13;;;;;;;-13.22;55.28;98689.41;6277017;22;20431;-59
2024/01/12 00:02:40;;;;;;;3.60;1.08;;;;;;;-13.27;55.50;98675.66;6275163;22;20019;-57
2024/01/12 00:05:07;;;;;;;2.85;1.08;;;;;;;-13.31;55.28;98698.00;6276511;22;20125;-61
2024/01/12 00:07:32;;;;;;;3.65;1.27;;;;;;;-13.32;55.36;98690.25;6276543;22;20003;-60
2024/01/12 00:09:58;;;;;;;4.05;1.35;;;;;;;-13.34;55.24;98699.72;6275854;22;20465;-61
2024/01/12 00:12:23;;;;;;;1.75;0.90;;;;;;;-13.38;55.47;98688.59;6276384;22;20011;-57
2024/01/12 00:14:49;;;;;;;2.78;1.30;;;;;;;-13.41;55.91;98697.16;6276722;22;20011;-59
2024/01/12 00:17:14;;;;;;;5.57;1.30;;;;;;;-13.47;55.93;98701.50;6276353;22;20031;-61
2024/01/12 00:19:40;;;;;;;3.08;1.50;;;;;;;-13.56;56.02;98708.38;6276556;22;19999;-60
2024/01/12 00:22:05;;;;;;;6.13;1.60;;;;;;;-13.56;56.05;98707.50;6276223;22;19999;-57
2024/01/12 00:24:31;;;;;;;4.90;1.40;;;;;;;-13.48;56.28;98703.22;6276551;22;20000;-60
2024/01/12 00:26:56;;;;;;;5.82;1.50;;;;;;;-13.48;56.03;98710.06;6276404;22;20053;-56
2024/01/12 00:29:22;;;;;;;5.20;1.58;;;;;;;-13.62;55.88;98692.06;6276602;22;20022;-60
2024/01/12 00:31:47;;;;;;;5.45;1.60;;;;;;;-13.65;56.31;98694.66;6276387;22;20000;-60
2024/01/12 00:34:13;;;;;;;4.15;1.60;;;;;;;-13.61;56.41;98706.66;6276390;22;20065;-59
2024/01/12 00:36:38;;;;;;;3.15;1.55;;;;;;;-13.65;55.89;98710.94;6276204;22;20015;-59
2024/01/12 00:39:04;;;;;;;2.60;1.30;;;;;;;-13.64;56.17;98706.66;6276686;22;20000;-57
2024/01/12 00:41:30;;;;;;;5.57;1.75;;;;;;;-13.73;56.70;98689.50;6276535;22;20020;-59
2024/01/12 00:43:56;;;;;;;2.80;1.60;;;;;;;-13.63;56.59;98706.66;6276111;22;20015;-55
2024/01/12 00:46:21;;;;;;;6.95;2.05;;;;;;;-13.61;56.61;98706.66;6276594;22;20003;-58
2024/01/12 00:48:49;;;;;;;3.80;1.60;;;;;;;-13.64;56.69;98714.38;6276560;22;20337;-59
2024/01/12 00:51:15;;;;;;;5.03;1.50;;;;;;;-13.64;56.92;98704.94;6276116;22;20011;-60
2024/01/12 00:53:41;;;;;;;6.63;2.17;;;;;;;-13.68;56.75;98707.53;6276165;22;20003;-57
2024/01/12 00:56:07;;;;;;;3.45;1.35;;;;;;;-13.65;56.58;98702.38;6276600;22;20140;-58
2024/01/12 00:58:33;;;;;;;5.35;1.70;;;;;;;-13.67;56.78;98704.09;6276466;22;20013;-58
2024/01/12 01:00:59;;;;;;;4.93;1.80;;;;;;;-13.65;56.95;98715.25;6276271;22;20014;-60
2024/01/12 01:03:24;;;;;;;4.60;1.52;;;;;;;-13.65;57.08;98704.94;6276355;22;20000;-61
2024/01/12 01:05:50;;;;;;;4.57;1.55;;;;;;;-13.61;57.12;98719.53;6275869;22;20067;-60
2024/01/12 01:08:16;;;;;;;9.13;1.67;;;;;;;-13.61;57.20;98710.09;6276599;22;20016;-60
2024/01/12 01:10:43;;;;;;;2.92;1.42;;;;;;;-13.58;57.76;98715.25;6275727;22;20007;-58
2024/01/12 01:13:09;;;;;;;3.28;1.55;;;;;;;-13.58;57.82;98709.22;6276468;22;20075;-58
2024/01/12 01:15:35;;;;;;;5.90;1.60;;;;;;;-13.55;57.93;98711.78;6276701;22;20015;-57
2024/01/12 01:18:00;;;;;;;3.92;1.80;;;;;;;-13.53;57.85;98699.78;6276524;22;20008;-60
2024/01/12 01:20:26;;;;;;;2.92;1.33;;;;;;;-13.36;57.64;98709.16;6276062;22;20003;-60
2024/01/12 01:22:51;;;;;;;5.32;1.40;;;;;;;-13.72;58.04;98647.47;6276709;22;20000;-62
2024/01/12 01:25:18;;;;;;;5.05;1.55;;;;;;;-13.34;57.88;98723.75;6276655;22;20000;-58
2024/01/12 01:27:44;;;;;;;2.78;1.38;;;;;;;-13.39;58.15;98697.13;6276649;22;20103;-60
2024/01/12 01:30:10;;;;;;;3.58;1.60;;;;;;;-13.33;58.38;98710.03;6276235;22;20032;-60
2024/01/12 01:32:36;;;;;;;5.35;1.80;;;;;;;-13.33;58.25;98711.72;6276176;22;20098;-58
2024/01/12 01:35:02;;;;;;;6.57;1.92;;;;;;;-13.34;58.61;98707.44;6275194;22;20329;-60
2024/01/12 01:37:29;;;;;;;4.53;1.50;;;;;;;-13.34;58.38;98710.00;6276488;22;20011;-61
2024/01/12 01:39:55;;;;;;;6.82;1.40;;;;;;;-13.32;58.60;98722.03;6276164;22;20008;-60
2024/01/12 01:42:21;;;;;;;5.13;1.50;;;;;;;-13.48;58.49;98695.50;6276034;22;20102;-58
2024/01/12 01:44:46;;;;;;;3.72;1.42;;;;;;;-13.29;58.82;98716.00;6276289;22;20012;-60
2024/01/12 01:47:14;;;;;;;9.13;2.65;;;;;;;-13.38;59.00;98713.47;6276393;22;20007;-60
2024/01/12 01:49:39;;;;;;;5.80;1.70;;;;;;;-13.36;59.29;98722.91;6275801;22;20031;-58
2024/01/12 01:52:05;;;;;;;5.45;1.65;;;;;;;-13.33;59.71;98709.16;6275838;22;20035;-56
2024/01/12 01:54:32;;;;;;;2.78;1.25;;;;;;;-13.53;59.51;98681.75;6276432;22;20074;-60
2024/01/12 01:56:58;;;;;;;5.20;1.42;;;;;;;-13.25;59.62;98712.59;6275926;22;20007;-61
2024/01/12 01:59:24;;;;;;;4.13;1.40;;;;;;;-13.15;59.81;98700.50;6275473;22;20025;-61
2024/01/12 02:01:50;;;;;;;7.53;1.63;;;;;;;-12.93;59.64;98703.03;6276605;22;20012;-60
2024/01/12 02:04:16;;;;;;;7.53;2.50;;;;;;;-12.73;59.58;98711.53;6277707;22;20149;-60
2024/01/12 02:06:42;;;;;;;4.30;1.67;;;;;;;-12.55;59.58;98710.59;6277616;22;20373;-56
2024/01/12 02:09:10;;;;;;;5.63;1.50;;;;;;;-12.41;59.23;98709.66;6277233;22;20409;-59
2024/01/12 02:11:35;;;;;;;8.13;1.65;;;;;;;-12.27;58.79;98701.84;6277595;22;20015;-58
2024/01/12 02:14:06;;;;;;;6.30;1.80;;;;;;;-12.15;58.78;98709.50;6277723;22;20011;-60
2024/01/12 02:16:36;;;;;;;2.90;1.60;;;;;;;-12.42;58.69;98643.47;6277522;22;20004;-59
2024/01/12 02:19:02;;;;;;;7.53;1.70;;;;;;;-12.15;58.42;98695.75;6277418;22;20000;-61
2024/01/12 02:21:28;;;;;;;7.43;1.77;;;;;;;-12.04;59.02;98701.69;6277968;22;20289;-58
2024/01/12 02:23:54;;;;;;;3.70;1.40;;;;;;;-11.80;58.39;98720.41;6277650;22;20033;-61
2024/01/12 02:26:19;;;;;;;2.92;1.30;;;;;;;-11.83;58.46;98703.22;6277150;22;20363;-58
2024/01/12 02:28:46;;;;;;;7.43;1.50;;;;;;;-11.80;58.39;98698.91;6277613;22;19999;-59
2024/01/12 02:31:11;;;;;;;4.32;1.65;;;;;;;-11.80;58.61;98693.72;6276222;22;20011;-60
2024/01/12 02:33:37;;;;;;;5.55;1.60;;;;;;;-11.80;58.97;98681.69;6277704;22;20007;-60
2024/01/12 02:36:03;;;;;;;9.80;1.65;;;;;;;-11.70;59.09;98696.22;6277513;22;20266;-58
2024/01/12 02:38:28;;;;;;;2.80;1.17;;;;;;;-11.65;58.69;98682.41;6277522;22;20006;-55
2024/01/12 02:40:54;;;;;;;8.43;2.15;;;;;;;-11.73;58.69;98665.25;6277170;22;20104;-61
2024/01/12 02:43:22;;;;;;;7.32;2.35;;;;;;;-11.62;59.08;98684.97;6277493;22;20321;-59
2024/01/12 02:45:47;;;;;;;5.65;1.77;;;;;;;-11.57;58.95;98681.47;6277339;22;20000;-61
2024/01/12 02:48:13;;;;;;;5.97;1.80;;;;;;;-11.50;59.04;98683.97;6277107;22;20000;-60
2024/01/12 02:50:38;;;;;;;4.57;1.40;;;;;;;-11.54;58.65;98675.44;6277271;22;20008;-61
2024/01/12 02:53:04;;;;;;;7.88;1.58;;;;;;;-11.50;59.16;98682.28;6277742;22;20082;-61
2024/01/12 02:55:29;;;;;;;5.63;1.73;;;;;;;-11.40;58.65;98677.88;6276265;22;20011;-59
2024/01/12 02:57:55;;;;;;;3.45;1.60;;;;;;;-11.36;58.79;98681.25;6277625;22;20491;-59
2024/01/12 03:00:20;;;;;;;5.68;1.80;;;;;;;-11.36;58.67;98673.50;6277768;22;20008;-57
2024/01/12 03:02:45;;;;;;;7.00;1.75;;;;;;;-11.31;59.17;98664.00;6277647;22;20008;-60
2024/01/12 03:05:11;;;;;;;6.20;1.50;;;;;;;-11.28;58.92;98667.41;6277547;22;20072;-63
2024/01/12 03:07:37;;;;;;;6.03;1.48;;;;;;;-11.34;58.81;98670.06;6277695;22;20401;-56
2024/01/12 03:10:04;;;;;;;3.00;1.38;;;;;;;-11.39;58.96;98646.00;6277993;22;20065;-61
2024/01/12 03:12:29;;;;;;;5.53;1.70;;;;;;;-11.29;59.31;98642.44;6277788;22;20018;-59
2024/01/12 03:14:55;;;;;;;6.55;2.95;;;;;;;-11.25;59.11;98651.84;6276832;22;20043;-57
2024/01/12 03:17:21;;;;;;;7.07;1.80;;;;;;;-11.26;59.11;98641.56;6276916;22;20345;-57
2024/01/12 03:19:46;;;;;;;4.55;1.60;;;;;;;-11.24;59.03;98650.13;6276260;22;20064;-60
2024/01/12 03:22:12;;;;;;;4.95;1.63;;;;;;;-11.13;58.39;98656.03;6277428;22;20004;-61
2024/01/12 03:24:37;;;;;;;4.20;1.38;;;;;;;-11.56;58.98;98590.19;6276877;22;20011;-60
2024/01/12 03:27:03;;;;;;;5.40;1.50;;;;;;;-11.09;59.14;98654.28;6276671;22;20000;-62
2024/01/12 03:29:28;;;;;;;4.93;1.50;;;;;;;-11.02;59.37;98657.66;6277495;22;20079;-62
2024/01/12 03:31:54;;;;;;;3.50;1.70;;;;;;;-10.98;59.53;98661.91;6277349;22;20010;-56
2024/01/12 03:34:19;;;;;;;3.55;1.52;;;;;;;-10.98;59.74;98662.75;6276930;22;20459;-62
2024/01/12 03:36:45;;;;;;;7.53;1.35;;;;;;;-10.95;59.81;98664.44;6276722;22;20037;-61
2024/01/12 03:39:11;;;;;;;4.55;1.60;;;;;;;-11.04;59.63;98656.81;6277335;22;19999;-59
2024/01/12 03:41:36;;;;;;;6.68;1.45;;;;;;;-11.02;59.82;98660.22;6278093;22;20011;-58
2024/01/12 03:44:02;;;;;;;6.65;1.60;;;;;;;-11.09;59.89;98641.34;6277420;22;20122;-60
2024/01/12 03:46:27;;;;;;;3.47;1.45;;;;;;;-11.02;59.81;98653.31;6276862;22;20040;-61
2024/01/12 03:48:54;;;;;;;4.82;1.63;;;;;;;-11.05;59.43;98660.28;6277237;22;20037;-57
2024/01/12 03:51:19;;;;;;;5.00;1.48;;;;;;;-11.13;59.43;98658.59;6277074;22;20004;-59
2024/01/12 03:53:45;;;;;;;2.90;1.27;;;;;;;-11.14;59.79;98656.06;6276687;22;19999;-56
2024/01/12 03:56:10;;;;;;;5.75;1.65;;;;;;;-11.17;59.89;98649.19;6276698;22;20008;-57
2024/01/12 03:58:38;;;;;;;4.63;1.20;;;;;;;-11.55;60.10;98576.41;6277202;22;20016;-57
2024/01/12 04:01:07;;;;;;;8.43;1.70;;;;;;;-11.27;59.88;98647.59;6276826;22;20351;-59
2024/01/12 04:03:32;;;;;;;5.07;1.40;;;;;;;-11.41;59.46;98665.84;6277093;22;20015;-60
2024/01/12 04:05:59;;;;;;;3.15;1.20;;;;;;;-11.45;60.15;98664.13;6276444;22;20000;-57
2024/01/12 04:08:24;;;;;;;4.57;1.58;;;;;;;-11.31;59.57;98658.84;6276992;22;20018;-57
2024/01/12 04:10:53;;;;;;;3.22;1.33;;;;;;;-11.40;60.15;98658.03;6276867;22;20018;-54
2024/01/12 04:13:18;;;;;;;7.82;2.00;;;;;;;-11.23;59.90;98680.28;6277221;22;20146;-55
2024/01/12 04:15:44;;;;;;;2.72;1.20;;;;;;;-11.20;59.73;98654.41;6278682;22;20008;-57
2024/01/12 04:18:09;;;;;;;6.88;1.40;;;;;;;-11.18;59.39;98659.56;6277216;22;20008;-57
2024/01/12 04:20:35;;;;;;;6.85;1.60;;;;;;;-11.06;59.43;98658.56;6276852;22;20014;-57
2024/01/12 04:23:01;;;;;;;3.67;1.50;;;;;;;-11.01;59.30;98651.59;6277223;22;20016;-56
2024/01/12 04:25:26;;;;;;;5.85;1.23;;;;;;;-10.94;59.11;98642.88;6276597;22;20066;-57
2024/01/12 04:27:52;;;;;;;2.60;1.40;;;;;;;-10.94;59.70;98644.63;6276663;22;20031;-60
2024/01/12 04:30:17;;;;;;;2.33;1.20;;;;;;;-10.92;59.21;98633.38;6277191;22;19996;-57
2024/01/12 04:32:43;;;;;;;4.53;1.45;;;;;;;-10.94;59.37;98642.03;6277183;22;20007;-57
2024/01/12 04:35:09;;;;;;;3.00;1.35;;;;;;;-11.00;59.95;98632.63;6277037;22;20388;-58
2024/01/12 04:37:35;;;;;;;3.88;1.40;;;;;;;-11.03;60.41;98640.44;6277583;22;20078;-58
2024/01/12 04:40:00;;;;;;;8.60;1.58;;;;;;;-10.99;60.09;98647.25;6277168;22;20035;-57
2024/01/12 04:42:26;;;;;;;4.75;1.60;;;;;;;-10.96;60.15;98644.63;6276836;22;20296;-57
2024/01/12 04:44:51;;;;;;;5.03;1.60;;;;;;;-10.89;60.26;98651.44;6276466;22;20007;-57
2024/01/12 04:47:17;;;;;;;4.95;1.50;;;;;;;-10.77;59.78;98634.91;6277131;22;20416;-57
2024/01/12 04:49:42;;;;;;;5.57;1.60;;;;;;;-11.01;60.00;98597.31;6276982;22;20336;-59
2024/01/12 04:52:08;;;;;;;6.57;1.50;;;;;;;-11.06;60.04;98579.28;6275001;22;20000;-58
2024/01/12 04:54:33;;;;;;;5.82;1.40;;;;;;;-10.69;59.64;98616.69;6276589;22;20021;-55
2024/01/12 04:56:59;;;;;;;6.95;1.50;;;;;;;-10.67;60.07;98620.13;6276924;22;20003;-54
2024/01/12 04:59:25;;;;;;;6.22;1.80;;;;;;;-10.66;59.93;98624.41;6276410;22;20014;-55
2024/01/12 05:01:50;;;;;;;5.35;1.30;;;;;;;-10.64;59.43;98627.00;6276220;22;20082;-55
2024/01/12 05:04:16;;;;;;;4.82;2.10;;;;;;;-10.66;59.37;98614.06;6276538;22;20024;-57
2024/01/12 05:06:42;;;;;;;2.42;1.25;;;;;;;-10.67;60.00;98612.34;6274848;22;20313;-61
2024/01/12 05:09:07;;;;;;;4.53;1.88;;;;;;;-10.62;59.78;98625.25;6276618;22;20067;-62
2024/01/12 05:11:33;;;;;;;6.22;1.67;;;;;;;-10.55;59.93;98622.53;6276052;22;20234;-59
2024/01/12 05:13:59;;;;;;;2.38;1.27;;;;;;;-10.53;59.91;98630.28;6276125;22;20278;-57
2024/01/12 05:16:25;;;;;;;5.10;1.63;;;;;;;-10.54;60.41;98634.59;6276414;22;20047;-61
2024/01/12 05:18:51;;;;;;;4.90;1.50;;;;;;;-10.84;59.46;98566.06;6276194;22;19996;-59
2024/01/12 05:21:16;;;;;;;6.57;1.98;;;;;;;-10.38;60.34;98618.81;6275694;22;20007;-57
2024/01/12 05:23:44;;;;;;;7.93;2.20;;;;;;;-10.32;59.23;98628.22;6276074;22;20416;-60
2024/01/12 05:26:10;;;;;;;6.78;1.83;;;;;;;-10.42;59.60;98630.13;6276425;22;19996;-62
2024/01/12 05:28:35;;;;;;;5.68;1.77;;;;;;;-10.43;59.73;98625.81;6276425;22;20054;-60
2024/01/12 05:31:00;;;;;;;4.97;2.00;;;;;;;-10.32;59.59;98617.84;6275795;22;20467;-57
2024/01/12 05:33:26;;;;;;;6.80;1.58;;;;;;;-10.18;59.87;98646.13;6276033;22;20401;-61
2024/01/12 05:35:51;;;;;;;2.83;1.38;;;;;;;-10.14;59.97;98635.69;6277262;22;20098;-59
2024/01/12 05:38:17;;;;;;;5.20;1.83;;;;;;;-10.03;59.31;98645.88;6278396;22;20100;-60
2024/01/12 05:40:43;;;;;;;6.97;1.60;;;;;;;-10.07;60.22;98630.41;6277952;22;20018;-62
2024/01/12 05:43:08;;;;;;;7.82;2.00;;;;;;;-9.93;59.64;98632.78;6278262;22;20359;-60
2024/01/12 05:45:34;;;;;;;10.23;2.50;;;;;;;-9.99;59.94;98626.00;6278505;22;20067;-61
2024/01/12 05:48:00;;;;;;;7.03;1.90;;;;;;;-9.98;60.37;98644.06;6277546;22;20310;-58
2024/01/12 05:50:25;;;;;;;5.57;2.08;;;;;;;-10.00;60.36;98629.47;6277156;22;20296;-56
2024/01/12 05:52:51;;;;;;;9.35;1.73;;;;;;;-10.05;60.64;98631.25;6277745;22;20011;-56
2024/01/12 05:55:16;;;;;;;6.28;1.98;;;;;;;-10.25;61.04;98585.81;6276371;22;20014;-57
2024/01/12 05:57:42;;;;;;;12.30;2.72;;;;;;;-9.97;60.83;98622.47;6277952;22;20415;-59
2024/01/12 06:00:09;;;;;;;6.63;2.25;;;;;;;-9.86;61.34;98637.84;6276919;22;20000;-62
2024/01/12 06:02:34;;;;;;;5.57;2.13;;;;;;;-9.86;61.19;98637.00;6277461;22;20320;-59
2024/01/12 06:05:00;;;;;;;8.43;2.67;;;;;;;-9.86;61.26;98632.66;6277766;22;20014;-58
2024/01/12 06:07:26;;;;;;;11.77;2.97;;;;;;;-9.74;61.16;98641.09;6277507;22;20031;-59
2024/01/12 06:09:53;;;;;;;13.30;3.50;;;;;;;-9.74;61.04;98638.53;6277629;22;20129;-60
2024/01/12 06:12:18;;;;;;;9.27;2.83;;;;;;;-9.69;60.96;98644.47;6277692;22;19995;-60
2024/01/12 06:14:44;;;;;;;9.13;2.97;;;;;;;-9.62;60.88;98629.69;6277429;22;20006;-56
2024/01/12 06:17:10;;;;;;;11.15;2.83;;;;;;;-9.60;60.59;98640.88;6277956;22;20030;-59
2024/01/12 06:19:35;;;;;;;9.57;2.78;;;;;;;-9.60;60.68;98638.28;6276266;22;20007;-58
2024/01/12 06:22:01;;;;;;;9.73;3.00;;;;;;;-9.61;60.62;98649.53;6277619;22;20039;-61
2024/01/12 06:24:26;;;;;;;10.32;2.70;;;;;;;-9.63;60.81;98643.50;6277595;22;20389;-55
2024/01/12 06:26:52;;;;;;;16.48;3.40;;;;;;;-9.60;60.30;98633.09;6277972;22;20092;-58
2024/01/12 06:29:17;;;;;;;11.13;3.20;;;;;;;-9.54;59.87;98651.94;6277410;22;20000;-54
2024/01/12 06:31:43;;;;;;;11.07;2.92;;;;;;;-9.59;60.01;98647.75;6276427;22;20270;-63
2024/01/12 06:34:08;;;;;;;5.53;1.95;;;;;;;-9.57;60.04;98658.94;6278096;22;20328;-60
2024/01/12 06:36:34;;;;;;;14.93;2.45;;;;;;;-9.50;59.50;98654.50;6277391;22;20296;-54
2024/01/12 06:38:59;;;;;;;9.73;2.13;;;;;;;-9.47;59.43;98660.47;6277204;22;20000;-58
2024/01/12 06:41:25;;;;;;;6.63;1.98;;;;;;;-9.55;59.19;98644.22;6277743;22;20012;-56
2024/01/12 06:43:50;;;;;;;6.45;1.90;;;;;;;-9.41;59.77;98664.69;6277952;22;20012;-62
2024/01/12 06:46:16;;;;;;;6.03;2.20;;;;;;;-9.35;59.56;98655.97;6277256;22;20000;-58
2024/01/12 06:48:42;;;;;;;9.07;2.20;;;;;;;-9.23;58.84;98663.50;6277476;22;20035;-58
2024/01/12 06:51:07;;;;;;;7.20;1.90;;;;;;;-9.18;58.31;98658.22;6277631;22;20298;-61
2024/01/12 06:53:33;;;;;;;7.78;1.95;;;;;;;-9.12;58.44;98663.28;6277604;22;20030;-61
2024/01/12 06:55:59;;;;;;;5.57;2.30;;;;;;;-9.10;58.22;98657.22;6277222;22;20046;-60
2024/01/12 06:58:24;;;;;;;10.35;2.30;;;;;;;-9.03;58.08;98649.28;6277180;22;20007;-59
2024/01/12 07:00:50;;;;;;;9.70;2.30;;;;;;;-8.89;58.18;98667.16;6277638;22;20008;-61
2024/01/12 07:03:15;;;;;;;9.68;2.58;;;;;;;-8.82;57.63;98664.44;6277675;22;20003;-62
2024/01/12 07:05:41;;;;;;;6.32;2.45;;;;;;;-8.61;56.87;98661.41;6276090;22;19999;-58
2024/01/12 07:08:07;;;;;;;4.80;1.73;;;;;;;-8.64;56.60;98641.59;6277137;22;19996;-57
2024/01/12 07:10:32;;;;;;;7.93;2.72;;;;;;;-8.61;56.46;98662.28;6277395;22;20025;-59
2024/01/12 07:12:58;;;;;;;3.65;1.85;;;;;;;-8.67;56.21;98665.00;6277419;22;20082;-59
2024/01/12 07:15:23;;;;;;;8.05;2.67;;;;;;;-8.72;55.86;98664.22;6276897;22;19999;-59
2024/01/12 07:17:49;;;;;;;7.78;2.38;;;;;;;-8.74;56.67;98666.00;6277349;22;20057;-57
2024/01/12 07:20:15;;;;;;;6.30;1.98;;;;;;;-8.73;57.06;98662.53;6277654;22;19999;-55
2024/01/12 07:22:41;;;;;;;6.88;2.30;;;;;;;-8.67;57.27;98659.81;6277657;22;20068;-61
2024/01/12 07:25:07;;;;;;;7.40;2.78;;;;;;;-8.65;56.75;98676.22;6277360;22;20098;-61
2024/01/12 07:27:33;;;;;;;12.00;3.15;;;;;;;-8.69;57.37;98692.69;6277035;22;20349;-62
2024/01/12 07:29:58;;;;;;;15.40;2.72;;;;;;;-8.80;58.07;98698.97;6277505;22;20081;-61
2024/01/12 07:32:23;;;;;;;15.80;4.32;;;;;;;-8.89;59.12;98709.56;6276607;22;20058;-62
2024/01/12 07:34:49;;;;;;;11.32;2.45;;;;;;;-8.90;58.57;98718.22;6276313;22;19999;-61
2024/01/12 07:37:16;;;;;;;5.57;2.15;;;;;;;-8.97;57.45;98722.66;6276342;22;20007;-62
2024/01/12 07:39:42;;;;;;;5.20;1.58;;;;;;;-9.00;56.98;98735.69;6276128;22;20000;-62
2024/01/12 07:42:08;;;;;;;5.07;2.00;;;;;;;-9.02;55.22;98731.41;6277368;22;20412;-61
2024/01/12 07:44:33;;;;;;;8.50;2.22;;;;;;;-9.15;55.02;98735.97;6276929;22;20008;-60
2024/01/12 07:46:59;;;;;;;6.38;1.98;;;;;;;-9.32;55.03;98744.03;6276763;22;20004;-61
2024/01/12 07:49:24;;;;;;;4.82;1.90;;;;;;;-9.23;54.90;98759.44;6275146;22;20026;-59
2024/01/12 07:51:51;;;;;;;5.57;1.75;;;;;;;-9.13;55.10;98748.03;6276789;22;20007;-56
2024/01/12 07:54:17;;;;;;;5.72;1.70;;;;;;;-9.11;55.04;98751.44;6277112;22;20000;-57
2024/01/12 07:56:42;;;;;;;6.05;1.85;;;;;;;-8.97;54.36;98753.78;6276323;22;20105;-58
2024/01/12 07:59:08;;;;;;;5.30;1.52;;;;;;;-8.81;53.79;98763.84;6276291;22;20019;-61
2024/01/12 08:01:34;;;;;;;6.40;1.70;;;;;;;-8.62;53.62;98743.63;6277084;22;20006;-58
2024/01/12 08:03:59;;;;;;;6.13;1.70;;;;;;;-8.32;51.91;98769.78;6276605;22;20000;-61
2024/01/12 08:06:25;;;;;;;3.60;1.73;;;;;;;-8.28;51.32;98757.59;6277016;22;20000;-60
2024/01/12 08:08:50;;;;;;;4.78;1.75;;;;;;;-8.08;50.88;98780.56;6276435;22;20008;-62
2024/01/12 08:11:16;;;;;;;5.55;2.05;;;;;;;-7.99;50.80;98787.28;6276771;22;20007;-56
2024/01/12 08:13:41;;;;;;;7.95;1.98;;;;;;;-8.15;50.56;98735.66;6276857;22;20014;-61
2024/01/12 08:16:07;;;;;;;3.78;1.30;;;;;;;-7.85;50.08;98784.38;6276462;22;20010;-58
2024/01/12 08:18:34;;;;;;;9.00;1.48;;;;;;;-7.85;50.82;98790.41;6276509;22;20011;-58
2024/01/12 08:20:59;;;;;;;10.68;1.95;;;;;;;-8.33;49.75;98716.16;6276782;22;20003;-59
2024/01/12 08:23:25;;;;;;;4.50;1.67;;;;;;;-7.93;50.10;98795.81;6276419;22;20059;-60
2024/01/12 08:25:50;;;;;;;4.97;1.63;;;;;;;-8.28;50.01;98742.88;6276046;22;20000;-59
2024/01/12 08:28:16;;;;;;;2.78;1.73;;;;;;;-8.14;49.56;98778.09;6276985;22;19995;-59
2024/01/12 08:30:42;;;;;;;5.30;2.20;;;;;;;-8.28;50.07;98800.00;6276542;22;20300;-61
2024/01/12 08:33:07;;;;;;;7.95;1.70;;;;;;;-8.29;51.01;98800.88;6276303;22;19996;-61
2024/01/12 08:35:34;;;;;;;5.65;1.52;;;;;;;-8.22;50.77;98804.22;6276100;22;20019;-61
2024/01/12 08:37:59;;;;;;;13.70;2.25;;;;;;;-8.27;50.18;98806.91;6276798;22;20007;-61
2024/01/12 08:40:25;;;;;;;7.65;2.70;;;;;;;-8.32;50.21;98803.53;6276450;22;20012;-62
2024/01/12 08:42:51;;;;;;;5.32;2.30;;;;;;;-8.44;50.90;98806.38;6276364;22;20069;-66
2024/01/12 08:45:17;;;;;;;7.82;2.60;;;;;;;-8.52;50.35;98823.00;6275397;22;20301;-62
2024/01/12 08:47:43;;;;;;;9.10;3.15;;;;;;;-8.89;50.46;98784.78;6276668;22;20021;-59
2024/01/12 08:50:08;;;;;;;18.63;4.43;;;;;;;-8.83;51.47;98815.78;6276401;22;20008;-56
2024/01/12 08:52:34;;;;;;;15.77;5.10;;;;;;;-8.75;51.85;98812.19;6276098;22;20086;-61
2024/01/12 08:55:00;;;;;;;9.98;3.42;;;;;;;-8.54;51.31;98824.75;6276245;22;19999;-60
2024/01/12 08:57:25;;;;;;;14.02;4.45;;;;;;;-8.42;51.04;98810.66;6275524;22;20452;-61
2024/01/12 08:59:51;;;;;;;9.15;3.20;;;;;;;-8.44;50.09;98814.16;6276770;22;20397;-60
2024/01/12 09:02:17;;;;;;;9.13;2.75;;;;;;;-8.61;49.54;98815.41;6276368;22;20010;-60
2024/01/12 09:04:42;;;;;;;4.85;1.88;;;;;;;-8.67;49.91;98811.16;6275940;22;20082;-61
2024/01/12 09:07:07;;;;;;;5.20;1.80;;;;;;;-8.67;49.54;98823.31;6276547;22;20000;-60
2024/01/12 09:09:33;;;;;;;5.03;2.10;;;;;;;-8.69;49.18;98827.63;6276395;22;20019;-60
2024/01/12 09:11:58;;;;;;;9.10;2.47;;;;;;;-8.89;48.82;98817.63;6278128;22;20010;-59
2024/01/12 09:14:24;;;;;;;12.35;3.15;;;;;;;-8.99;49.67;98830.78;6277904;22;20019;-57
2024/01/12 09:16:49;;;;;;;9.35;2.75;;;;;;;-9.13;49.40;98831.00;6277110;22;20008;-57
2024/01/12 09:19:15;;;;;;;8.38;3.10;;;;;;;-9.28;49.90;98846.78;6251368;22;20022;-59
2024/01/12 09:21:40;;;;;;;9.43;4.13;;;;;;;-9.48;49.61;98840.19;6277358;22;20012;-58
2024/01/12 09:24:06;;;;;;;7.00;2.30;;;;;;;-9.56;49.70;98842.88;6251319;22;20011;-59
2024/01/12 09:26:31;;;;;;;6.88;2.08;;;;;;;-10.00;49.44;98829.69;6278232;22;19999;-62
2024/01/12 09:28:57;;;;;;;4.18;2.00;;;;;;;-10.09;49.96;98866.06;6278288;22;20003;-57
2024/01/12 09:31:23;;;;;;;10.30;3.30;;;;;;;-10.28;50.57;98850.75;6278721;22;20011;-61
2024/01/12 09:33:48;;;;;;;13.13;5.07;;;;;;;-10.37;51.22;98853.41;6278717;22;20079;-59
2024/01/12 09:36:14;;;;;;;13.60;4.13;;;;;;;-10.33;51.45;98867.19;6278527;22;20000;-58
2024/01/12 09:38:39;;;;;;;15.75;4.57;;;;;;;-10.29;51.67;98880.09;6278236;22;20428;-58
2024/01/12 09:41:09;;;;;;;15.68;4.95;;;;;;;-10.16;51.16;98869.56;6278222;22;20014;-57
2024/01/12 09:43:35;;;;;;;12.68;4.93;;;;;;;-10.25;51.41;98863.63;6278284;22;20012;-61
2024/01/12 09:46:04;;;;;;;13.60;4.78;;;;;;;-10.30;50.55;98869.75;6277026;22;20000;-61
2024/01/12 09:48:30;;;;;;;12.10;3.92;;;;;;;-10.36;50.51;98862.91;6277048;22;20004;-60
2024/01/12 09:50:56;;;;;;;4.80;2.38;;;;;;;-10.40;50.46;98871.59;6251541;22;20069;-61
2024/01/12 09:53:22;;;;;;;4.28;1.95;;;;;;;-10.47;50.55;98877.72;6278383;22;20004;-59
2024/01/12 09:55:49;;;;;;;6.22;2.22;;;;;;;-10.51;50.49;98860.53;6277956;22;20286;-59
2024/01/12 09:58:17;;;;;;;5.93;2.10;;;;;;;-10.61;50.74;98860.63;6278005;22;20510;-58
2024/01/12 10:00:44;;;;;;;9.90;2.90;;;;;;;-10.60;50.48;98866.66;6278060;22;19999;-62
2024/01/12 10:03:11;;;;;;;9.27;3.10;;;;;;;-10.57;51.16;98867.47;6278140;22;20052;-59
2024/01/12 10:05:37;;;;;;;5.43;2.38;;;;;;;-10.56;50.44;98861.44;6277887;22;20000;-62
2024/01/12 10:08:11;;;;;;;14.52;5.22;;;;;;;-10.59;50.42;98863.19;6277037;22;20081;-61
2024/01/12 10:10:39;;;;;;;8.43;3.53;;;;;;;-10.49;50.10;98866.53;6278157;22;20086;-59
2024/01/12 10:13:04;;;;;;;12.30;3.72;;;;;;;-10.49;49.63;98866.53;6277905;22;20091;-59
2024/01/12 10:15:30;;;;;;;12.55;4.47;;;;;;;-10.56;49.76;98874.38;6277529;22;20043;-58
2024/01/12 10:17:56;;;;;;;12.52;4.90;;;;;;;-10.54;50.29;98876.91;6278275;22;20004;-57
2024/01/12 10:20:22;;;;;;;19.05;6.60;;;;;;;-10.60;49.72;98867.53;6276776;22;20008;-57
2024/01/12 10:22:58;;;;;;;13.10;4.35;;;;;;;-10.43;49.52;98876.81;6277118;22;20008;-59
2024/01/12 10:25:23;;;;;;;7.55;3.05;;;;;;;-10.44;49.82;98877.69;6278171;22;20098;-59
2024/01/12 10:27:58;;;;;;;12.23;2.92;;;;;;;-10.42;49.80;98891.47;6277477;22;20420;-58
2024/01/12 10:30:24;;;;;;;6.45;2.42;;;;;;;-10.55;49.68;98886.44;6277098;22;20278;-56
2024/01/12 10:32:51;;;;;;;6.80;2.10;;;;;;;-10.52;49.64;98880.34;6277745;22;20030;-55
2024/01/12 10:35:20;;;;;;;4.50;1.77;;;;;;;-10.53;49.75;98884.69;6277691;22;20055;-59
2024/01/12 10:37:47;;;;;;;5.75;1.85;;;;;;;-10.53;49.97;98873.47;6277454;22;20007;-57
2024/01/12 10:40:16;;;;;;;10.48;3.13;;;;;;;-10.41;49.83;98888.00;6277303;22;20007;-60
2024/01/12 10:42:48;;;;;;;7.55;2.90;;;;;;;-10.39;49.83;98875.88;6277823;22;20015;-61
2024/01/12 10:45:20;;;;;;;11.88;4.45;;;;;;;-10.41;49.44;98888.88;6277459;22;20031;-59
2024/01/12 10:47:51;;;;;;;7.60;2.80;;;;;;;-10.49;49.86;98876.88;6277375;22;20277;-61
2024/01/12 10:50:17;;;;;;;9.18;2.65;;;;;;;-10.42;50.18;98881.13;6278032;22;19996;-58
2024/01/12 10:53:04;;;;;;;6.50;2.03;;;;;;;-10.62;49.15;98838.19;6277750;22;20010;-58
2024/01/12 10:55:34;;;;;;;13.18;4.45;;;;;;;-10.43;49.84;98861.28;6277665;22;19999;-59
2024/01/12 10:58:02;;;;;;;10.68;4.00;;;;;;;-10.37;49.32;98881.88;6277634;22;20255;-62
2024/01/12 11:00:31;;;;;;;16.92;4.45;;;;;;;-10.24;49.51;98891.25;6278170;22;20030;-61
2024/01/12 11:02:58;;;;;;;13.40;4.22;;;;;;;-10.25;49.40;98873.13;6278064;22;20000;-58
2024/01/12 11:05:26;;;;;;;9.23;3.38;;;;;;;-10.05;49.65;98896.22;6277967;22;20011;-59
2024/01/12 11:07:53;;;;;;;6.57;2.63;;;;;;;-9.99;48.24;98911.66;6277454;22;20065;-56
2024/01/12 11:10:19;;;;;;;8.73;2.53;;;;;;;-10.00;47.57;98896.16;6277736;22;20016;-59
2024/01/12 11:12:46;;;;;;;7.22;2.20;;;;;;;-10.12;48.35;98908.38;6277834;22;20385;-61
2024/01/12 11:15:12;;;;;;;6.88;2.63;;;;;;;-10.32;48.20;98895.66;6276896;22;20003;-60
2024/01/12 11:17:39;;;;;;;6.13;2.47;;;;;;;-10.42;48.16;98896.63;6277759;22;20285;-57
2024/01/12 11:20:13;;;;;;;11.60;2.83;;;;;;;-10.44;48.86;98922.56;6277744;22;20000;-58